Flight Track Log - Related Links

Times and Time Zones

All times are in EDT time to prevent confusion due to time zone crossing. See the N529RG flight status page for this flight to view local times or setup timezone preferences in your user account.

Time Position Orientation Groundspeed Altitude Reporting Facility
EDT Latitude Longitude Course Direction KTS MPH feet Rate Location/Type
Fri 04:50:20 PM 39.2500 -85.9167 360° North 114 131 1,400  Level Indianapolis TRACON
Fri 04:51:08 PM 39.2833 -85.9167 360° North 124 143 1,800 449 Climbing Indianapolis TRACON
Fri 04:52:07 PM 39.3067 -85.8878 44° Northeast 130 150 2,200 446 Climbing Chicago Center
Fri 04:53:09 PM 39.3433 -85.8642 26° Northeast 138 159 2,700 429 Climbing Chicago Center
Fri 04:54:13 PM 39.3806 -85.8400 27° Northeast 143 165 3,100 429 Climbing Indianapolis Center
Fri 04:55:15 PM 39.4156 -85.8153 29° Northeast 145 167 3,600 532 Climbing Indianapolis Center
Fri 04:56:17 PM 39.4500 -85.7917 28° Northeast 143 165 4,200 581 Climbing Indianapolis Center
Fri 04:57:19 PM 39.4897 -85.7625 30° Northeast 140 161 4,800 532 Climbing Indianapolis Center
Fri 04:58:21 PM 39.5233 -85.7400 27° Northeast 138 159 5,300 484 Climbing Indianapolis Center
Fri 04:59:23 PM 39.5569 -85.7139 31° Northeast 139 160 5,800 484 Climbing Indianapolis Center
Fri 05:00:25 PM 39.5903 -85.6883 31° Northeast 140 161 6,300 484 Climbing Indianapolis Center
Fri 05:01:27 PM 39.6239 -85.6611 32° Northeast 141 162 6,800 339 Climbing Indianapolis Center
Fri 05:02:29 PM 39.6669 -85.6350 25° Northeast 142 163 7,000 97 Climbing Indianapolis Center
Fri 05:03:31 PM 39.7064 -85.6131 23° Northeast 147 169 7,000  Level Indianapolis Center
Fri 05:04:33 PM 39.7456 -85.5850 29° Northeast 155 178 7,000 48 Level Indianapolis Center
Fri 05:05:35 PM 39.7794 -85.5469 41° Northeast 159 183 7,100 242 Climbing Indianapolis Center
Fri 05:06:37 PM 39.8136 -85.5111 39° Northeast 160 184 7,500 387 Climbing Indianapolis Center
Fri 05:07:39 PM 39.8492 -85.4794 34° Northeast 157 181 7,900 435 Climbing Indianapolis Center
Fri 05:08:41 PM 39.8944 -85.4453 30° Northeast 157 181 8,400 435 Climbing Indianapolis Center
Fri 05:09:43 PM 39.9306 -85.4156 32° Northeast 157 181 8,800 336 Climbing Indianapolis Center
Fri 05:10:46 PM 39.9667 -85.3836 34° Northeast 156 180 9,100 144 Climbing Indianapolis Center
Fri 05:11:48 PM 40.0047 -85.3522 32° Northeast 159 183 9,100  Level Indianapolis Center
Fri 05:12:50 PM 40.0419 -85.3206 33° Northeast 161 185 9,100  Level Indianapolis Center
Fri 05:13:52 PM 40.0875 -85.2831 32° Northeast 162 186 9,100  Level Indianapolis Center
Fri 05:14:54 PM 40.1261 -85.2553 29° Northeast 160 184 9,100  Level Indianapolis Center
Fri 05:15:56 PM 40.1664 -85.2311 25° Northeast 159 183 9,100  Level Indianapolis Center
Fri 05:16:58 PM 40.2047 -85.2050 27° Northeast 158 182 9,100  Level Indianapolis Center
Fri 05:18:00 PM 40.2425 -85.1792 28° Northeast 154 177 9,100  Level Indianapolis Center
Fri 05:19:02 PM 40.2881 -85.1481 28° Northeast 155 178 9,100  Level Indianapolis Center
Fri 05:20:04 PM 40.3281 -85.1228 26° Northeast 158 182 9,100 48 Level Indianapolis Center
Fri 05:21:06 PM 40.3678 -85.0997 24° Northeast 158 182 9,200  Climbing Indianapolis Center
Fri 05:22:08 PM 40.4086 -85.0775 23° Northeast 159 183 9,100 -48 Descending Indianapolis Center
Fri 05:23:10 PM 40.4494 -85.0525 25° Northeast 162 186 9,100  Level Indianapolis Center
Fri 05:24:12 PM 40.4903 -85.0286 24° Northeast 161 185 9,100  Level Indianapolis Center
Fri 05:25:14 PM 40.5372 -85.0003 25° Northeast 157 181 9,100  Level Indianapolis Center
Fri 05:26:16 PM 40.5783 -84.9769 23° Northeast 159 183 9,100  Level Indianapolis Center
Fri 05:27:18 PM 40.6192 -84.9533 24° Northeast 161 185 9,100  Level Indianapolis Center
Fri 05:28:21 PM 40.6636 -84.9264 25° Northeast 157 181 9,100  Level Chicago Center
Fri 05:29:23 PM 40.7042 -84.9031 24° Northeast 159 183 9,100  Level Chicago Center
Fri 05:30:25 PM 40.7453 -84.8783 24° Northeast 163 188 9,100  Level Chicago Center
Fri 05:31:27 PM 40.7853 -84.8556 23° Northeast 159 183 9,100  Level Chicago Center
Fri 05:32:29 PM 40.8267 -84.8314 24° Northeast 161 185 9,100  Level Chicago Center
Fri 05:33:31 PM 40.8756 -84.8022 24° Northeast 162 186 9,100  Level Chicago Center
Fri 05:34:33 PM 40.9156 -84.7775 25° Northeast 160 184 9,100  Level Chicago Center
Fri 05:35:36 PM 40.9578 -84.7544 22° Northeast 162 186 9,100  Level Chicago Center
Fri 05:36:38 PM 40.9981 -84.7303 24° Northeast 161 185 9,100  Level Chicago Center
Fri 05:37:40 PM 41.0383 -84.7064 24° Northeast 160 184 9,100  Level Chicago Center
Fri 05:38:42 PM 41.0803 -84.6806 25° Northeast 164 189 9,100  Level Chicago Center
Fri 05:39:44 PM 41.1303 -84.6519 23° Northeast 163 188 9,100  Level Chicago Center
Fri 05:40:46 PM 41.1728 -84.6267 24° Northeast 166 191 9,100  Level Chicago Center
Fri 05:41:48 PM 41.2144 -84.6014 25° Northeast 167 192 9,100  Level Chicago Center
Fri 05:42:50 PM 41.2544 -84.5775 24° Northeast 164 189 9,100  Level Chicago Center
Fri 05:43:52 PM 41.2961 -84.5531 24° Northeast 163 188 9,100  Level Chicago Center
Fri 05:44:55 PM 41.3458 -84.5225 25° Northeast 164 189 9,100  Level Chicago Center
Fri 05:45:57 PM 41.3875 -84.4986 23° Northeast 164 189 9,100  Level Chicago Center
Fri 05:46:59 PM 41.4283 -84.4736 25° Northeast 163 188 9,100  Level Chicago Center
Fri 05:48:01 PM 41.4697 -84.4492 24° Northeast 163 188 9,100  Level Chicago Center
Fri 05:49:03 PM 41.5114 -84.4231 25° Northeast 164 189 9,100  Level Chicago Center
Fri 05:50:05 PM 41.5606 -84.3953 23° Northeast 162 186 9,100  Level Chicago Center
Fri 05:51:07 PM 41.6000 -84.3714 24° Northeast 160 184 9,100 -48 Level Chicago Center
Fri 05:52:09 PM 41.6408 -84.3464 25° Northeast 160 184 9,000 -245 Descending Chicago Center
Fri 05:52:45 PM 41.6656 -84.3297 27° Northeast 167 192 8,700 -367 Descending Cleveland Center
Fri 05:53:47 PM 41.7106 -84.3025 24° Northeast 174 200 8,400 -333 Descending Cleveland Center
Fri 05:54:51 PM 41.7647 -84.2714 23° Northeast 181 208 8,000 -290 Descending Cleveland Center
Fri 05:55:51 PM 41.8042 -84.2444 27° Northeast 177 204 7,800 -246 Descending Cleveland Center
Fri 05:56:53 PM 41.8419 -84.2006 41° Northeast 180 207 7,500 -323 Descending Cleveland Center
Fri 05:57:24 PM 41.8656 -84.1719 42° Northeast 181 208 7,300 -286 Descending Cleveland Center
Fri 05:57:56 PM 41.8786 -84.1556 43° Northeast 181 208 7,200 -387 Descending Cleveland Center
Fri 05:58:26 PM 41.9028 -84.1300 38° Northeast 178 205 6,900 -484 Descending Cleveland Center
Fri 05:58:58 PM 41.9233 -84.1036 44° Northeast 178 205 6,700 -358 Descending Cleveland Center
Fri 05:59:33 PM 41.9425 -84.0825 39° Northeast 178 205 6,500 -387 Descending Cleveland Center
Fri 06:00:00 PM 41.9606 -84.0583 45° Northeast 179 206 6,300 -393 Descending Cleveland Center
Fri 06:00:34 PM 41.9819 -84.0353 39° Northeast 177 204 6,100 -194 Descending Cleveland Center
Fri 06:01:02 PM 41.9967 -84.0161 44° Northeast 176 203 6,100  Level Cleveland Center
Fri 06:01:35 PM 42.0172 -83.9928 40° Northeast 171 197 6,100 -194 Level Cleveland Center
Fri 06:02:04 PM 42.0311 -83.9736 46° Northeast 170 196 5,900 -387 Descending Cleveland Center
Fri 06:02:37 PM 42.0542 -83.9506 37° Northeast 170 196 5,700 -387 Descending Cleveland Center
Fri 06:03:06 PM 42.0672 -83.9308 48° Northeast 172 198 5,500 -590 Descending Cleveland Center
Fri 06:03:38 PM 42.0897 -83.9022 43° Northeast 172 198 5,100 -677 Descending Cleveland Center
Fri 06:04:08 PM 42.1008 -83.8847 49° Northeast 172 198 4,800 -885 Descending Cleveland Center
Fri 06:04:39 PM 42.1189 -83.8531 52° Northeast 169 194 4,200 -968 Descending Cleveland Center
Fri 06:05:10 PM 42.1317 -83.8264 57° Northeast 166 191 3,800 -787 Descending Cleveland Center
Fri 06:05:40 PM 42.1419 -83.8031 59° Northeast 155 178 3,400 -774 Descending Cleveland Center
Fri 06:06:12 PM 42.1536 -83.7775 58° Northeast 159 183 3,000 -750 Descending Cleveland Center
Fri 06:06:36 PM 42.1675 -83.7703 21° North 139 160 2,700 -581 Descending Cleveland Center
Fri 06:07:14 PM 42.1875 -83.7553 29° Northeast 146 168 2,400 -492 Descending Cleveland Center
Fri 06:07:37 PM 42.2008 -83.7497 17° North 122 140 2,200 -484 Descending Cleveland Center
Fri 06:08:16 PM 42.2117 -83.7256 59° Northeast 134 154 1,900 -590 Descending Cleveland Center
Fri 06:08:38 PM 42.2228 -83.7106 45° Northeast 121 139 1,600 -581 Descending Cleveland Center
Fri 06:09:18 PM 42.2325 -83.7164 336° Northwest 120 138 1,300 -353 Descending Cleveland Center
Fri 06:10:20 PM 42.2206 -83.7456 241° Southwest 102 117 1,000 -290 Descending Cleveland Center

Login

Don't have an account? Register now (free) for customized features, flight alerts, and more!